Nearby METAR Reports

 

KSYN - Stanton, Minnesota, USA
Distance from station: NW 20mi, 33km
Updated: Sat, 22-Jun-2024 2:55pm CDT

 Wind from calm
Wind: Calm
Visibility: 4 miles, 6 km
2024/06/22 19:55 KSYN 221955Z AUTO 00000KT 4SM +VCTSRA SCT024 BKN032 OVC038 22/20 A2981 RMK AO2 LTG DSNT ALQ
KTOB - Dodge Center, Minnesota, USA
Distance from station: SSW 21mi, 34km
Updated: Sat, 22-Jun-2024 2:55pm CDT
Mostly cloudy
Mostly cloudy
 Wind from ENE
Wind: ENE 6 mph, 9 km/h
Temperature: 73°F, 23°C
Dew Point: 68°F, 20°C
Humidity: 83%
Barometer: 29.79 inHg, 1008.8 hPa
Clouds: Mostly cloudy
Visibility: 10 miles, 16 km
Cloud details: Mostly cloudy 3600 ft
2024/06/22 19:55 KTOB 221955Z AUTO 07005KT 10SM BKN036 23/20 A2979 RMK AO2 LTG DSNT NW
K9MN - St Mary Hospital, Minnesota, USA
Distance from station: SSE 22mi, 35km
Updated: Sat, 22-Jun-2024 2:55pm CDT
Overcast
Overcast
 Wind from NNE
Wind: NNE 7 mph, 11 km/h
Temperature: 75°F, 24°C
Dew Point: 66°F, 19°C
Humidity: 74%
Barometer: 29.78 inHg, 1008.5 hPa
Clouds: Overcast
Visibility: 10 miles, 16 km
Cloud details: Partly cloudy 2000 ft
Mostly cloudy 3100 ft
Overcast 8000 ft
2024/06/22 19:55 K9MN 221955Z AUTO 03006KT 10SM SCT020 BKN031 OVC080 24/19 A2978 RMK AO1 T02350185
 
KRGK - Red Wing, Minnesota, USA
Distance from station: NNE 22mi, 35km
Updated: Sat, 22-Jun-2024 2:55pm CDT
Rain, Overcast
Rain, Overcast
 Wind from calm
Wind: Calm
Temperature: 75°F, 24°C
Dew Point: 66°F, 19°C
Humidity: 74%
Barometer: 29.77 inHg, 1008.1 hPa
Summary: Rain
Clouds: Overcast
Visibility: 7 miles, 11 km
Cloud details: Overcast 3100 ft
2024/06/22 19:55 KRGK 221955Z AUTO 00000KT 7SM RA OVC031 24/19 A2977 RMK AO2 LTG DSNT W AND NW
KRST - Rochester, Minnesota, USA
Distance from station: SSE 29mi, 47km
Updated: Sat, 22-Jun-2024 2:54pm CDT
Mostly cloudy
Mostly cloudy
 Wind from ENE
Wind: ENE 9 mph, 15 km/h
Temperature: 73°F, 23°C
Dew Point: 66°F, 19°C
Humidity: 78%
Barometer: 29.78 inHg, 1008.5 hPa
Clouds: Mostly cloudy
Visibility: 10 miles, 16 km
Cloud details: Few Clouds 2300 ft
Partly cloudy 3700 ft
Mostly cloudy 8000 ft
2024/06/22 19:54 KRST 221954Z 06008KT 10SM FEW023 SCT037 BKN080 23/19 A2978 RMK AO2 LTG DSNT W AND NW SLP077 T02330194
KOWA - Owatonna, Minnesota, USA
Distance from station: WSW 31mi, 50km
Updated: Sat, 22-Jun-2024 2:53pm CDT
Thunderstorm rain, Overcast
Thunderstorm rain, Overcast
 Wind from calm
Wind: Calm
Temperature: 70°F, 21°C
Dew Point: 66°F, 19°C
Humidity: 88%
Barometer: 29.80 inHg, 1009.1 hPa
Summary: Thunderstorm Rain
Clouds: Overcast
Visibility: 4 miles, 6 km
Cloud details: Partly cloudy 300 ft
Mostly cloudy 2100 ft
Overcast 5000 ft
2024/06/22 19:53 KOWA 221953Z AUTO 00000KT 4SM TSRA SCT003 BKN021 OVC050 21/19 A2980 RMK AO2 P0001 LTG DSNT ALQDS
 
KFBL - Faribault Muni, Minnesota, USA
Distance from station: W 32mi, 51km
Updated: Sat, 22-Jun-2024 2:55pm CDT
Nearby thunderstorm, Rain, Overcast
Nearby thunderstorm, Rain, Overcast
 Wind from N
Wind: N 3 mph, 6 km/h
Temperature: 72°F, 22°C
Dew Point: 68°F, 20°C
Humidity: 88%
Barometer: 29.79 inHg, 1008.8 hPa
Summary: Nearby thunderstorm, Rain
Clouds: Overcast
Visibility: 4 miles, 6 km
Cloud details: Partly cloudy 1000 ft
Mostly cloudy 1800 ft
Overcast 4100 ft
2024/06/22 19:55 KFBL 221955Z AUTO 35003KT 4SM VCTSRA SCT010 BKN018 OVC041 22/20 A2979 RMK AO2 P0001 LTG DSNT ALQDS
KSGS - South St Paul, Minnesota, USA
Distance from station: NNW 43mi, 69km
Updated: Sat, 22-Jun-2024 2:55pm CDT
Light rain, Overcast
Light rain, Overcast
 Wind from calm
Wind: Calm
Temperature: 72°F, 22°C
Dew Point: 68°F, 20°C
Humidity: 88%
Barometer: 29.79 inHg, 1008.8 hPa
Summary: Light rain
Clouds: Overcast
Visibility: 2 miles, 3 km
Cloud details: Overcast 2700 ft
2024/06/22 19:55 KSGS 221955Z AUTO 00000KT 2SM -RA OVC027 22/20 A2979 RMK AO2 LTG DSNT S P0005 T02210198
KAUM - Austin Muni, Minnesota, USA
Distance from station: SSW 46mi, 73km
Updated: Sat, 22-Jun-2024 2:55pm CDT
Overcast
Overcast
 Wind from ESE
Wind: ESE 5 mph, 7 km/h
Temperature: 77°F, 25°C
Dew Point: 70°F, 21°C
Humidity: 79%
Barometer: 29.76 inHg, 1007.8 hPa
Clouds: Overcast
Visibility: 10 miles, 16 km
Cloud details: Overcast 5500 ft
2024/06/22 19:55 KAUM 221955Z AUTO 12004KT 10SM OVC055 25/21 A2976 RMK AO2 LTG DSNT W AND NW
 
KACQ - Waseca, Minnesota, USA
Distance from station: WSW 46mi, 75km
Updated: Sat, 22-Jun-2024 2:55pm CDT
Light rain, Mostly cloudy
Light rain, Mostly cloudy
 Wind from calm
Wind: Calm
Temperature: 70°F, 21°C
Dew Point: 68°F, 20°C
Humidity: 94%
Barometer: 29.82 inHg, 1009.8 hPa
Summary: Light rain
Clouds: Mostly cloudy
Visibility: 7 miles, 11 km
Cloud details: Partly cloudy 300 ft
Partly cloudy 1300 ft
Mostly cloudy 3200 ft
2024/06/22 19:55 KACQ 221955Z AUTO 00000KT 7SM -RA SCT003 SCT013 BKN032 21/20 A2982 RMK AO2 LTG DSNT NE THRU SW P0035
KSTP - St. Paul, Minnesota, USA
Distance from station: NNW 47mi, 76km
Updated: Sat, 22-Jun-2024 2:53pm CDT
Rain, Mist, Overcast
Rain, Mist, Overcast
 Wind from N
Wind: N 7 mph, 11 km/h
Temperature: 72°F, 22°C
Dew Point: 68°F, 20°C
Humidity: 88%
Barometer: 29.79 inHg, 1008.8 hPa
Summary: Rain, Mist
Clouds: Overcast
Visibility: 3 miles, 5 km
Cloud details: Partly cloudy 2200 ft
Mostly cloudy 2700 ft
Overcast 3700 ft
2024/06/22 19:53 KSTP 221953Z 35006KT 3SM RA BR SCT022 BKN027 OVC037 22/20 A2979 RMK AO2 LTG DSNT S RAB19 SLP082 P0006 T02170200
KMSP - Minneapolis, Minnesota, USA
Distance from station: NW 49mi, 78km
Updated: Sat, 22-Jun-2024 2:53pm CDT
Heavy rain, Mist, Overcast
Heavy rain, Mist, Overcast
 Wind from NNW
Wind: NNW 6 mph, 9 km/h
Temperature: 72°F, 22°C
Dew Point: 66°F, 19°C
Humidity: 83%
Barometer: 29.80 inHg, 1009.1 hPa
Summary: Heavy rain, Mist
Clouds: Overcast
Visibility: 2 miles, 3 km
Cloud details: Mostly cloudy 1700 ft
Mostly cloudy 2800 ft
Overcast 3400 ft
2024/06/22 19:53 KMSP 221953Z 34005KT 2SM +RA BR BKN017 BKN028 OVC034 22/19 A2980 RMK AO2 LTG DSNT SE AND S RAB03 SLP088 P0009 T02170194